sensor_id;sensor_type;location;lat;lon;timestamp;P1;durP1;ratioP1;P2;durP2;ratioP2
10383;SDS011;5238;43.508;4.980;2023-07-16T00:00:13;10.45;;;5.57;;
10383;SDS011;5238;43.508;4.980;2023-07-16T00:02:43;9.40;;;5.78;;
10383;SDS011;5238;43.508;4.980;2023-07-16T00:05:10;9.88;;;5.88;;
10383;SDS011;5238;43.508;4.980;2023-07-16T00:07:37;13.65;;;5.97;;
10383;SDS011;5238;43.508;4.980;2023-07-16T00:10:06;15.18;;;6.55;;
10383;SDS011;5238;43.508;4.980;2023-07-16T00:12:33;10.85;;;5.85;;
10383;SDS011;5238;43.508;4.980;2023-07-16T00:15:00;12.52;;;5.85;;
10383;SDS011;5238;43.508;4.980;2023-07-16T00:17:27;10.90;;;5.80;;
10383;SDS011;5238;43.508;4.980;2023-07-16T00:19:54;9.95;;;5.95;;
10383;SDS011;5238;43.508;4.980;2023-07-16T00:22:21;9.93;;;5.57;;
10383;SDS011;5238;43.508;4.980;2023-07-16T00:24:48;9.82;;;5.65;;
10383;SDS011;5238;43.508;4.980;2023-07-16T00:27:16;12.38;;;6.55;;
10383;SDS011;5238;43.508;4.980;2023-07-16T00:29:43;14.50;;;6.03;;
10383;SDS011;5238;43.508;4.980;2023-07-16T00:32:11;8.32;;;5.78;;
10383;SDS011;5238;43.508;4.980;2023-07-16T00:34:38;13.60;;;6.07;;
10383;SDS011;5238;43.508;4.980;2023-07-16T00:37:05;10.90;;;6.28;;
10383;SDS011;5238;43.508;4.980;2023-07-16T00:39:32;9.00;;;6.05;;
10383;SDS011;5238;43.508;4.980;2023-07-16T00:41:59;9.82;;;5.85;;
10383;SDS011;5238;43.508;4.980;2023-07-16T00:44:27;11.82;;;6.22;;
10383;SDS011;5238;43.508;4.980;2023-07-16T00:46:54;8.93;;;5.60;;
10383;SDS011;5238;43.508;4.980;2023-07-16T00:49:21;13.30;;;6.93;;
10383;SDS011;5238;43.508;4.980;2023-07-16T00:51:49;10.98;;;5.40;;
10383;SDS011;5238;43.508;4.980;2023-07-16T00:54:17;12.30;;;6.47;;
10383;SDS011;5238;43.508;4.980;2023-07-16T00:56:45;8.63;;;5.50;;
10383;SDS011;5238;43.508;4.980;2023-07-16T00:59:12;11.23;;;6.15;;
10383;SDS011;5238;43.508;4.980;2023-07-16T01:01:40;10.40;;;6.38;;
10383;SDS011;5238;43.508;4.980;2023-07-16T01:04:07;13.55;;;5.97;;
10383;SDS011;5238;43.508;4.980;2023-07-16T01:06:35;12.52;;;6.35;;
10383;SDS011;5238;43.508;4.980;2023-07-16T01:09:06;9.25;;;5.78;;
10383;SDS011;5238;43.508;4.980;2023-07-16T01:11:37;10.68;;;6.10;;
10383;SDS011;5238;43.508;4.980;2023-07-16T01:14:06;9.13;;;6.28;;
10383;SDS011;5238;43.508;4.980;2023-07-16T01:16:34;10.60;;;6.28;;
10383;SDS011;5238;43.508;4.980;2023-07-16T01:19:02;9.63;;;5.88;;
10383;SDS011;5238;43.508;4.980;2023-07-16T01:21:31;12.77;;;5.80;;
10383;SDS011;5238;43.508;4.980;2023-07-16T01:24:05;7.93;;;5.40;;
10383;SDS011;5238;43.508;4.980;2023-07-16T01:26:50;7.70;;;5.43;;
10383;SDS011;5238;43.508;4.980;2023-07-16T01:29:28;11.20;;;5.60;;
10383;SDS011;5238;43.508;4.980;2023-07-16T01:31:58;8.80;;;5.95;;
10383;SDS011;5238;43.508;4.980;2023-07-16T01:34:27;10.93;;;5.40;;
10383;SDS011;5238;43.508;4.980;2023-07-16T01:36:55;9.10;;;5.93;;
10383;SDS011;5238;43.508;4.980;2023-07-16T01:39:22;10.93;;;6.30;;
10383;SDS011;5238;43.508;4.980;2023-07-16T01:41:50;11.02;;;6.15;;
10383;SDS011;5238;43.508;4.980;2023-07-16T01:44:16;9.80;;;6.50;;
10383;SDS011;5238;43.508;4.980;2023-07-16T01:46:45;9.48;;;6.13;;
10383;SDS011;5238;43.508;4.980;2023-07-16T01:49:20;11.88;;;5.85;;
10383;SDS011;5238;43.508;4.980;2023-07-16T01:51:47;9.85;;;5.97;;
10383;SDS011;5238;43.508;4.980;2023-07-16T01:54:14;10.82;;;6.32;;
10383;SDS011;5238;43.508;4.980;2023-07-16T01:56:40;10.15;;;5.60;;
10383;SDS011;5238;43.508;4.980;2023-07-16T01:59:07;9.02;;;6.18;;
10383;SDS011;5238;43.508;4.980;2023-07-16T02:01:34;11.15;;;5.95;;
10383;SDS011;5238;43.508;4.980;2023-07-16T02:04:03;12.15;;;6.07;;
10383;SDS011;5238;43.508;4.980;2023-07-16T02:06:30;10.10;;;5.82;;
10383;SDS011;5238;43.508;4.980;2023-07-16T02:08:57;13.63;;;6.50;;
10383;SDS011;5238;43.508;4.980;2023-07-16T02:11:24;9.77;;;6.43;;
10383;SDS011;5238;43.508;4.980;2023-07-16T02:13:51;9.82;;;6.15;;
10383;SDS011;5238;43.508;4.980;2023-07-16T02:16:18;10.52;;;6.40;;
10383;SDS011;5238;43.508;4.980;2023-07-16T02:18:45;10.02;;;5.72;;
10383;SDS011;5238;43.508;4.980;2023-07-16T02:21:13;8.95;;;5.85;;
10383;SDS011;5238;43.508;4.980;2023-07-16T02:23:40;12.57;;;6.22;;
10383;SDS011;5238;43.508;4.980;2023-07-16T02:26:07;11.27;;;5.90;;
10383;SDS011;5238;43.508;4.980;2023-07-16T02:28:34;13.50;;;6.10;;
10383;SDS011;5238;43.508;4.980;2023-07-16T02:31:01;13.57;;;6.40;;
10383;SDS011;5238;43.508;4.980;2023-07-16T02:33:29;7.05;;;5.63;;
10383;SDS011;5238;43.508;4.980;2023-07-16T02:35:56;9.52;;;6.00;;
10383;SDS011;5238;43.508;4.980;2023-07-16T02:38:24;14.00;;;5.90;;
10383;SDS011;5238;43.508;4.980;2023-07-16T02:40:51;11.45;;;6.28;;
10383;SDS011;5238;43.508;4.980;2023-07-16T02:43:18;11.18;;;6.63;;
10383;SDS011;5238;43.508;4.980;2023-07-16T02:45:46;9.68;;;5.72;;
10383;SDS011;5238;43.508;4.980;2023-07-16T02:48:13;12.48;;;6.47;;
10383;SDS011;5238;43.508;4.980;2023-07-16T02:50:40;10.15;;;5.97;;
10383;SDS011;5238;43.508;4.980;2023-07-16T02:53:07;14.95;;;6.30;;
10383;SDS011;5238;43.508;4.980;2023-07-16T02:55:36;14.55;;;6.70;;
10383;SDS011;5238;43.508;4.980;2023-07-16T02:58:03;12.68;;;6.47;;
10383;SDS011;5238;43.508;4.980;2023-07-16T03:00:30;10.45;;;6.30;;
10383;SDS011;5238;43.508;4.980;2023-07-16T03:02:57;12.73;;;6.32;;
10383;SDS011;5238;43.508;4.980;2023-07-16T03:05:24;14.38;;;6.13;;
10383;SDS011;5238;43.508;4.980;2023-07-16T03:07:52;10.00;;;7.30;;
10383;SDS011;5238;43.508;4.980;2023-07-16T03:10:21;10.50;;;6.30;;
10383;SDS011;5238;43.508;4.980;2023-07-16T03:12:53;14.52;;;6.80;;
10383;SDS011;5238;43.508;4.980;2023-07-16T03:15:20;9.48;;;5.95;;
10383;SDS011;5238;43.508;4.980;2023-07-16T03:17:47;10.45;;;6.32;;
10383;SDS011;5238;43.508;4.980;2023-07-16T03:20:14;10.30;;;6.65;;
10383;SDS011;5238;43.508;4.980;2023-07-16T03:22:41;11.38;;;6.97;;
10383;SDS011;5238;43.508;4.980;2023-07-16T03:25:08;12.25;;;6.63;;
10383;SDS011;5238;43.508;4.980;2023-07-16T03:27:35;13.77;;;6.70;;
10383;SDS011;5238;43.508;4.980;2023-07-16T03:30:04;13.68;;;6.63;;
10383;SDS011;5238;43.508;4.980;2023-07-16T03:32:32;14.32;;;6.85;;
10383;SDS011;5238;43.508;4.980;2023-07-16T03:34:59;14.70;;;7.13;;
10383;SDS011;5238;43.508;4.980;2023-07-16T03:37:26;12.20;;;6.70;;
10383;SDS011;5238;43.508;4.980;2023-07-16T03:39:53;10.65;;;6.82;;
10383;SDS011;5238;43.508;4.980;2023-07-16T03:42:20;15.50;;;7.28;;
10383;SDS011;5238;43.508;4.980;2023-07-16T03:44:48;11.65;;;6.95;;
10383;SDS011;5238;43.508;4.980;2023-07-16T03:47:16;11.48;;;6.80;;
10383;SDS011;5238;43.508;4.980;2023-07-16T03:49:43;12.85;;;7.15;;
10383;SDS011;5238;43.508;4.980;2023-07-16T03:52:10;13.43;;;6.50;;
10383;SDS011;5238;43.508;4.980;2023-07-16T03:54:37;11.10;;;6.65;;
10383;SDS011;5238;43.508;4.980;2023-07-16T03:57:04;11.57;;;6.97;;
10383;SDS011;5238;43.508;4.980;2023-07-16T03:59:40;12.90;;;7.15;;
10383;SDS011;5238;43.508;4.980;2023-07-16T04:02:09;11.32;;;6.63;;
10383;SDS011;5238;43.508;4.980;2023-07-16T04:04:39;13.73;;;6.82;;
10383;SDS011;5238;43.508;4.980;2023-07-16T04:07:10;10.40;;;7.03;;
10383;SDS011;5238;43.508;4.980;2023-07-16T04:09:37;12.02;;;6.38;;
10383;SDS011;5238;43.508;4.980;2023-07-16T04:12:05;9.68;;;6.47;;
10383;SDS011;5238;43.508;4.980;2023-07-16T04:14:33;13.85;;;6.88;;
10383;SDS011;5238;43.508;4.980;2023-07-16T04:17:00;13.73;;;7.05;;
10383;SDS011;5238;43.508;4.980;2023-07-16T04:19:27;11.65;;;6.80;;
10383;SDS011;5238;43.508;4.980;2023-07-16T04:21:56;13.38;;;7.53;;
10383;SDS011;5238;43.508;4.980;2023-07-16T04:24:23;14.82;;;7.13;;
10383;SDS011;5238;43.508;4.980;2023-07-16T04:26:51;10.27;;;7.07;;
10383;SDS011;5238;43.508;4.980;2023-07-16T04:29:19;13.13;;;7.18;;
10383;SDS011;5238;43.508;4.980;2023-07-16T04:31:46;11.40;;;6.90;;
10383;SDS011;5238;43.508;4.980;2023-07-16T04:34:13;13.98;;;7.60;;
10383;SDS011;5238;43.508;4.980;2023-07-16T04:36:41;14.85;;;7.72;;
10383;SDS011;5238;43.508;4.980;2023-07-16T04:39:10;15.93;;;7.97;;
10383;SDS011;5238;43.508;4.980;2023-07-16T04:41:37;12.48;;;7.68;;
10383;SDS011;5238;43.508;4.980;2023-07-16T04:44:04;14.57;;;7.43;;
10383;SDS011;5238;43.508;4.980;2023-07-16T04:46:31;15.23;;;7.53;;
10383;SDS011;5238;43.508;4.980;2023-07-16T04:48:58;12.35;;;7.20;;
10383;SDS011;5238;43.508;4.980;2023-07-16T04:51:26;14.63;;;6.90;;
10383;SDS011;5238;43.508;4.980;2023-07-16T04:53:53;10.38;;;6.80;;
10383;SDS011;5238;43.508;4.980;2023-07-16T04:56:22;11.57;;;6.50;;
10383;SDS011;5238;43.508;4.980;2023-07-16T04:58:49;14.40;;;6.80;;
10383;SDS011;5238;43.508;4.980;2023-07-16T05:01:16;13.63;;;6.18;;
10383;SDS011;5238;43.508;4.980;2023-07-16T05:03:43;12.88;;;6.53;;
10383;SDS011;5238;43.508;4.980;2023-07-16T05:06:10;11.85;;;6.70;;
10383;SDS011;5238;43.508;4.980;2023-07-16T05:08:37;12.48;;;6.45;;
10383;SDS011;5238;43.508;4.980;2023-07-16T05:11:04;11.15;;;6.85;;
10383;SDS011;5238;43.508;4.980;2023-07-16T05:13:32;13.15;;;6.50;;
10383;SDS011;5238;43.508;4.980;2023-07-16T05:15:59;14.00;;;6.68;;
10383;SDS011;5238;43.508;4.980;2023-07-16T05:18:26;11.30;;;6.55;;
10383;SDS011;5238;43.508;4.980;2023-07-16T05:20:53;9.98;;;6.40;;
10383;SDS011;5238;43.508;4.980;2023-07-16T05:23:20;10.18;;;5.90;;
10383;SDS011;5238;43.508;4.980;2023-07-16T05:25:47;10.65;;;5.75;;
10383;SDS011;5238;43.508;4.980;2023-07-16T05:28:15;8.07;;;4.35;;
10383;SDS011;5238;43.508;4.980;2023-07-16T05:30:43;6.05;;;4.82;;
10383;SDS011;5238;43.508;4.980;2023-07-16T05:33:11;7.15;;;4.20;;
10383;SDS011;5238;43.508;4.980;2023-07-16T05:35:38;5.07;;;3.63;;
10383;SDS011;5238;43.508;4.980;2023-07-16T05:38:06;7.20;;;3.92;;
10383;SDS011;5238;43.508;4.980;2023-07-16T05:40:33;4.45;;;3.75;;
10383;SDS011;5238;43.508;4.980;2023-07-16T05:43:00;4.85;;;3.55;;
10383;SDS011;5238;43.508;4.980;2023-07-16T05:45:27;5.97;;;3.38;;
10383;SDS011;5238;43.508;4.980;2023-07-16T05:47:56;3.80;;;3.38;;
10383;SDS011;5238;43.508;4.980;2023-07-16T05:50:25;7.28;;;3.70;;
10383;SDS011;5238;43.508;4.980;2023-07-16T05:52:55;7.50;;;3.50;;
10383;SDS011;5238;43.508;4.980;2023-07-16T05:55:22;5.63;;;3.85;;
10383;SDS011;5238;43.508;4.980;2023-07-16T05:57:49;5.13;;;3.75;;
10383;SDS011;5238;43.508;4.980;2023-07-16T06:00:17;5.22;;;3.50;;
10383;SDS011;5238;43.508;4.980;2023-07-16T06:02:44;6.32;;;3.47;;
10383;SDS011;5238;43.508;4.980;2023-07-16T06:05:12;3.72;;;3.35;;
10383;SDS011;5238;43.508;4.980;2023-07-16T06:07:42;5.13;;;3.30;;
10383;SDS011;5238;43.508;4.980;2023-07-16T06:10:09;4.38;;;3.03;;
10383;SDS011;5238;43.508;4.980;2023-07-16T06:12:37;4.55;;;3.15;;
10383;SDS011;5238;43.508;4.980;2023-07-16T06:15:04;5.75;;;3.00;;
10383;SDS011;5238;43.508;4.980;2023-07-16T06:17:31;5.90;;;3.40;;
10383;SDS011;5238;43.508;4.980;2023-07-16T06:20:01;5.95;;;2.97;;
10383;SDS011;5238;43.508;4.980;2023-07-16T06:22:30;6.15;;;3.40;;
10383;SDS011;5238;43.508;4.980;2023-07-16T06:24:57;6.07;;;3.20;;
10383;SDS011;5238;43.508;4.980;2023-07-16T06:27:24;6.72;;;3.10;;
10383;SDS011;5238;43.508;4.980;2023-07-16T06:29:57;5.55;;;3.00;;
10383;SDS011;5238;43.508;4.980;2023-07-16T06:32:24;4.20;;;2.30;;
10383;SDS011;5238;43.508;4.980;2023-07-16T06:37:57;3.30;;;2.35;;
10383;SDS011;5238;43.508;4.980;2023-07-16T06:40:24;5.88;;;2.78;;
10383;SDS011;5238;43.508;4.980;2023-07-16T06:42:51;4.38;;;2.70;;
10383;SDS011;5238;43.508;4.980;2023-07-16T06:45:18;4.00;;;2.78;;
10383;SDS011;5238;43.508;4.980;2023-07-16T06:47:45;8.13;;;3.17;;
10383;SDS011;5238;43.508;4.980;2023-07-16T06:50:12;4.32;;;2.33;;
10383;SDS011;5238;43.508;4.980;2023-07-16T06:52:39;4.72;;;2.53;;
10383;SDS011;5238;43.508;4.980;2023-07-16T06:55:08;3.00;;;2.67;;
10383;SDS011;5238;43.508;4.980;2023-07-16T06:57:35;4.22;;;2.75;;
10383;SDS011;5238;43.508;4.980;2023-07-16T07:00:02;3.78;;;2.75;;
10383;SDS011;5238;43.508;4.980;2023-07-16T07:02:30;5.68;;;3.20;;
10383;SDS011;5238;43.508;4.980;2023-07-16T07:04:57;4.82;;;2.80;;
10383;SDS011;5238;43.508;4.980;2023-07-16T07:07:24;5.75;;;2.80;;
10383;SDS011;5238;43.508;4.980;2023-07-16T07:09:51;6.00;;;3.17;;
10383;SDS011;5238;43.508;4.980;2023-07-16T07:12:20;4.13;;;2.72;;
10383;SDS011;5238;43.508;4.980;2023-07-16T07:14:47;3.75;;;2.70;;
10383;SDS011;5238;43.508;4.980;2023-07-16T07:17:14;4.22;;;2.70;;
10383;SDS011;5238;43.508;4.980;2023-07-16T07:19:41;5.32;;;2.92;;
10383;SDS011;5238;43.508;4.980;2023-07-16T07:22:09;3.40;;;3.10;;
10383;SDS011;5238;43.508;4.980;2023-07-16T07:24:36;5.45;;;3.13;;
10383;SDS011;5238;43.508;4.980;2023-07-16T07:27:03;4.53;;;2.95;;
10383;SDS011;5238;43.508;4.980;2023-07-16T07:29:32;36.67;;;20.88;;
10383;SDS011;5238;43.508;4.980;2023-07-16T07:31:59;6.63;;;3.63;;
10383;SDS011;5238;43.508;4.980;2023-07-16T07:34:26;6.10;;;3.78;;
10383;SDS011;5238;43.508;4.980;2023-07-16T07:36:53;19.40;;;9.68;;
10383;SDS011;5238;43.508;4.980;2023-07-16T07:39:20;8.80;;;5.82;;
10383;SDS011;5238;43.508;4.980;2023-07-16T07:41:46;4.88;;;3.80;;
10383;SDS011;5238;43.508;4.980;2023-07-16T07:44:13;8.02;;;5.13;;
10383;SDS011;5238;43.508;4.980;2023-07-16T07:46:42;4.43;;;3.55;;
10383;SDS011;5238;43.508;4.980;2023-07-16T07:49:09;5.75;;;3.25;;
10383;SDS011;5238;43.508;4.980;2023-07-16T07:51:36;3.90;;;3.42;;
10383;SDS011;5238;43.508;4.980;2023-07-16T07:54:02;4.13;;;3.15;;
10383;SDS011;5238;43.508;4.980;2023-07-16T07:56:29;5.18;;;3.50;;
10383;SDS011;5238;43.508;4.980;2023-07-16T07:58:56;5.05;;;3.20;;
10383;SDS011;5238;43.508;4.980;2023-07-16T08:01:23;5.18;;;3.58;;
10383;SDS011;5238;43.508;4.980;2023-07-16T08:03:52;3.90;;;3.38;;
10383;SDS011;5238;43.508;4.980;2023-07-16T08:06:19;5.05;;;3.85;;
10383;SDS011;5238;43.508;4.980;2023-07-16T08:08:46;4.53;;;3.42;;
10383;SDS011;5238;43.508;4.980;2023-07-16T08:11:12;4.55;;;3.85;;
10383;SDS011;5238;43.508;4.980;2023-07-16T08:13:39;12.23;;;4.55;;
10383;SDS011;5238;43.508;4.980;2023-07-16T08:16:06;5.57;;;4.20;;
10383;SDS011;5238;43.508;4.980;2023-07-16T08:18:34;9.48;;;4.35;;
10383;SDS011;5238;43.508;4.980;2023-07-16T08:21:02;4.22;;;3.67;;
10383;SDS011;5238;43.508;4.980;2023-07-16T08:23:29;6.32;;;4.22;;
10383;SDS011;5238;43.508;4.980;2023-07-16T08:25:57;6.78;;;4.00;;
10383;SDS011;5238;43.508;4.980;2023-07-16T08:28:24;5.82;;;4.07;;
10383;SDS011;5238;43.508;4.980;2023-07-16T08:30:51;7.18;;;4.10;;
10383;SDS011;5238;43.508;4.980;2023-07-16T08:33:18;7.00;;;4.10;;
10383;SDS011;5238;43.508;4.980;2023-07-16T08:35:44;6.55;;;3.53;;
10383;SDS011;5238;43.508;4.980;2023-07-16T08:38:13;5.40;;;3.58;;
10383;SDS011;5238;43.508;4.980;2023-07-16T08:40:40;6.28;;;3.88;;
10383;SDS011;5238;43.508;4.980;2023-07-16T08:43:07;13.85;;;5.07;;
10383;SDS011;5238;43.508;4.980;2023-07-16T08:45:38;6.03;;;4.15;;
10383;SDS011;5238;43.508;4.980;2023-07-16T08:48:07;8.65;;;4.13;;
10383;SDS011;5238;43.508;4.980;2023-07-16T08:50:35;6.63;;;4.28;;
10383;SDS011;5238;43.508;4.980;2023-07-16T08:53:04;8.70;;;4.35;;
10383;SDS011;5238;43.508;4.980;2023-07-16T08:55:32;4.15;;;3.00;;
10383;SDS011;5238;43.508;4.980;2023-07-16T08:58:01;6.20;;;3.83;;
10383;SDS011;5238;43.508;4.980;2023-07-16T09:00:30;6.65;;;3.80;;
10383;SDS011;5238;43.508;4.980;2023-07-16T09:02:58;4.55;;;3.42;;
10383;SDS011;5238;43.508;4.980;2023-07-16T09:05:25;6.57;;;3.33;;
10383;SDS011;5238;43.508;4.980;2023-07-16T09:07:52;5.88;;;3.50;;
10383;SDS011;5238;43.508;4.980;2023-07-16T09:10:19;8.82;;;3.70;;
10383;SDS011;5238;43.508;4.980;2023-07-16T09:12:47;4.68;;;3.10;;
10383;SDS011;5238;43.508;4.980;2023-07-16T09:15:16;5.15;;;3.50;;
10383;SDS011;5238;43.508;4.980;2023-07-16T09:17:46;4.82;;;3.13;;
10383;SDS011;5238;43.508;4.980;2023-07-16T09:20:14;4.22;;;2.95;;
10383;SDS011;5238;43.508;4.980;2023-07-16T09:22:41;4.57;;;3.10;;
10383;SDS011;5238;43.508;4.980;2023-07-16T09:25:09;5.00;;;3.10;;
10383;SDS011;5238;43.508;4.980;2023-07-16T09:27:36;3.90;;;3.10;;
10383;SDS011;5238;43.508;4.980;2023-07-16T09:30:04;4.75;;;3.15;;
10383;SDS011;5238;43.508;4.980;2023-07-16T09:32:32;7.25;;;3.45;;
10383;SDS011;5238;43.508;4.980;2023-07-16T09:35:00;5.47;;;3.30;;
10383;SDS011;5238;43.508;4.980;2023-07-16T09:37:27;5.10;;;3.20;;
10383;SDS011;5238;43.508;4.980;2023-07-16T09:39:54;6.45;;;3.53;;
10383;SDS011;5238;43.508;4.980;2023-07-16T09:42:21;3.10;;;2.80;;
10383;SDS011;5238;43.508;4.980;2023-07-16T09:45:02;3.63;;;2.80;;
10383;SDS011;5238;43.508;4.980;2023-07-16T09:47:32;8.02;;;3.30;;
10383;SDS011;5238;43.508;4.980;2023-07-16T09:49:59;5.47;;;3.20;;
10383;SDS011;5238;43.508;4.980;2023-07-16T09:52:26;5.10;;;3.67;;
10383;SDS011;5238;43.508;4.980;2023-07-16T09:54:54;3.60;;;3.30;;
10383;SDS011;5238;43.508;4.980;2023-07-16T09:57:22;3.47;;;2.88;;
10383;SDS011;5238;43.508;4.980;2023-07-16T09:59:51;4.40;;;3.25;;
10383;SDS011;5238;43.508;4.980;2023-07-16T10:02:21;5.47;;;3.30;;
10383;SDS011;5238;43.508;4.980;2023-07-16T10:04:48;6.13;;;3.30;;
10383;SDS011;5238;43.508;4.980;2023-07-16T10:07:19;4.30;;;3.22;;
10383;SDS011;5238;43.508;4.980;2023-07-16T10:09:50;6.25;;;3.47;;
10383;SDS011;5238;43.508;4.980;2023-07-16T10:12:20;5.68;;;3.42;;
10383;SDS011;5238;43.508;4.980;2023-07-16T10:14:48;7.35;;;3.60;;
10383;SDS011;5238;43.508;4.980;2023-07-16T10:17:17;5.40;;;3.05;;
10383;SDS011;5238;43.508;4.980;2023-07-16T10:19:54;3.65;;;3.10;;
10383;SDS011;5238;43.508;4.980;2023-07-16T10:22:32;6.72;;;3.33;;
10383;SDS011;5238;43.508;4.980;2023-07-16T10:25:02;4.22;;;3.15;;
10383;SDS011;5238;43.508;4.980;2023-07-16T10:27:30;5.65;;;3.10;;
10383;SDS011;5238;43.508;4.980;2023-07-16T10:29:58;6.57;;;5.88;;
10383;SDS011;5238;43.508;4.980;2023-07-16T10:32:27;8.63;;;7.93;;
10383;SDS011;5238;43.508;4.980;2023-07-16T10:34:56;5.20;;;3.20;;
10383;SDS011;5238;43.508;4.980;2023-07-16T10:37:23;4.60;;;3.33;;
10383;SDS011;5238;43.508;4.980;2023-07-16T10:39:51;5.00;;;3.42;;
10383;SDS011;5238;43.508;4.980;2023-07-16T10:42:20;7.63;;;3.95;;
10383;SDS011;5238;43.508;4.980;2023-07-16T10:44:48;6.03;;;3.53;;
10383;SDS011;5238;43.508;4.980;2023-07-16T10:47:22;9.30;;;4.75;;
10383;SDS011;5238;43.508;4.980;2023-07-16T10:49:50;4.15;;;3.15;;
10383;SDS011;5238;43.508;4.980;2023-07-16T10:52:20;8.40;;;5.00;;
10383;SDS011;5238;43.508;4.980;2023-07-16T10:54:48;5.03;;;2.80;;
10383;SDS011;5238;43.508;4.980;2023-07-16T10:57:17;7.25;;;3.40;;
10383;SDS011;5238;43.508;4.980;2023-07-16T10:59:44;5.68;;;4.75;;
10383;SDS011;5238;43.508;4.980;2023-07-16T11:02:13;11.30;;;5.82;;
10383;SDS011;5238;43.508;4.980;2023-07-16T11:04:41;4.25;;;3.33;;
10383;SDS011;5238;43.508;4.980;2023-07-16T11:07:09;5.28;;;3.47;;
10383;SDS011;5238;43.508;4.980;2023-07-16T11:09:43;4.75;;;3.33;;
10383;SDS011;5238;43.508;4.980;2023-07-16T11:12:11;4.93;;;3.50;;
10383;SDS011;5238;43.508;4.980;2023-07-16T11:14:42;6.43;;;3.70;;
10383;SDS011;5238;43.508;4.980;2023-07-16T11:17:10;3.83;;;3.38;;
10383;SDS011;5238;43.508;4.980;2023-07-16T11:19:38;4.07;;;3.38;;
10383;SDS011;5238;43.508;4.980;2023-07-16T11:22:09;4.43;;;3.30;;
10383;SDS011;5238;43.508;4.980;2023-07-16T11:24:36;5.68;;;3.50;;
10383;SDS011;5238;43.508;4.980;2023-07-16T11:27:12;7.80;;;3.30;;
10383;SDS011;5238;43.508;4.980;2023-07-16T11:29:40;4.97;;;3.17;;
10383;SDS011;5238;43.508;4.980;2023-07-16T11:32:11;5.50;;;3.55;;
10383;SDS011;5238;43.508;4.980;2023-07-16T11:34:50;5.18;;;3.40;;
10383;SDS011;5238;43.508;4.980;2023-07-16T11:37:19;6.88;;;3.80;;
10383;SDS011;5238;43.508;4.980;2023-07-16T11:39:47;9.45;;;4.43;;
10383;SDS011;5238;43.508;4.980;2023-07-16T11:42:17;10.25;;;6.05;;
10383;SDS011;5238;43.508;4.980;2023-07-16T11:44:49;9.07;;;5.43;;
10383;SDS011;5238;43.508;4.980;2023-07-16T11:47:16;6.32;;;5.15;;
10383;SDS011;5238;43.508;4.980;2023-07-16T11:49:43;6.65;;;5.22;;
10383;SDS011;5238;43.508;4.980;2023-07-16T11:52:10;8.82;;;5.00;;
10383;SDS011;5238;43.508;4.980;2023-07-16T11:54:37;7.45;;;4.93;;
10383;SDS011;5238;43.508;4.980;2023-07-16T11:57:04;7.72;;;5.70;;
10383;SDS011;5238;43.508;4.980;2023-07-16T11:59:33;7.93;;;7.10;;
10383;SDS011;5238;43.508;4.980;2023-07-16T12:02:00;8.63;;;7.00;;
10383;SDS011;5238;43.508;4.980;2023-07-16T12:04:28;10.55;;;7.07;;
10383;SDS011;5238;43.508;4.980;2023-07-16T12:06:55;17.30;;;8.55;;
10383;SDS011;5238;43.508;4.980;2023-07-16T12:09:22;11.18;;;7.60;;
10383;SDS011;5238;43.508;4.980;2023-07-16T12:11:49;8.88;;;7.28;;
10383;SDS011;5238;43.508;4.980;2023-07-16T12:14:16;8.93;;;7.40;;
10383;SDS011;5238;43.508;4.980;2023-07-16T12:16:44;16.00;;;7.60;;
10383;SDS011;5238;43.508;4.980;2023-07-16T12:19:11;10.93;;;6.78;;
10383;SDS011;5238;43.508;4.980;2023-07-16T12:21:38;12.25;;;7.05;;
10383;SDS011;5238;43.508;4.980;2023-07-16T12:24:06;9.70;;;6.88;;
10383;SDS011;5238;43.508;4.980;2023-07-16T12:26:33;11.93;;;6.53;;
10383;SDS011;5238;43.508;4.980;2023-07-16T12:29:00;7.75;;;6.05;;
10383;SDS011;5238;43.508;4.980;2023-07-16T12:31:29;6.90;;;5.68;;
10383;SDS011;5238;43.508;4.980;2023-07-16T12:33:57;6.90;;;6.15;;
10383;SDS011;5238;43.508;4.980;2023-07-16T12:36:25;8.73;;;6.32;;
10383;SDS011;5238;43.508;4.980;2023-07-16T12:38:52;9.30;;;6.30;;
10383;SDS011;5238;43.508;4.980;2023-07-16T12:41:19;7.18;;;5.68;;
10383;SDS011;5238;43.508;4.980;2023-07-16T12:43:46;7.97;;;6.00;;
10383;SDS011;5238;43.508;4.980;2023-07-16T12:46:13;9.85;;;5.53;;
10383;SDS011;5238;43.508;4.980;2023-07-16T12:48:40;8.40;;;5.38;;
10383;SDS011;5238;43.508;4.980;2023-07-16T12:51:09;7.18;;;5.00;;
10383;SDS011;5238;43.508;4.980;2023-07-16T12:53:37;8.38;;;5.10;;
10383;SDS011;5238;43.508;4.980;2023-07-16T12:56:04;7.65;;;4.80;;
10383;SDS011;5238;43.508;4.980;2023-07-16T12:58:31;5.38;;;4.70;;
10383;SDS011;5238;43.508;4.980;2023-07-16T13:00:59;5.43;;;4.72;;
10383;SDS011;5238;43.508;4.980;2023-07-16T13:03:27;6.88;;;5.43;;
10383;SDS011;5238;43.508;4.980;2023-07-16T13:05:54;6.68;;;4.63;;
10383;SDS011;5238;43.508;4.980;2023-07-16T13:08:23;7.47;;;5.00;;
10383;SDS011;5238;43.508;4.980;2023-07-16T13:10:50;8.25;;;4.95;;
10383;SDS011;5238;43.508;4.980;2023-07-16T13:13:17;6.70;;;4.80;;
10383;SDS011;5238;43.508;4.980;2023-07-16T13:15:46;7.10;;;5.00;;
10383;SDS011;5238;43.508;4.980;2023-07-16T13:18:13;7.07;;;4.88;;
10383;SDS011;5238;43.508;4.980;2023-07-16T13:20:40;6.03;;;5.18;;
10383;SDS011;5238;43.508;4.980;2023-07-16T13:23:08;5.88;;;4.85;;
10383;SDS011;5238;43.508;4.980;2023-07-16T13:25:39;8.05;;;5.18;;
10383;SDS011;5238;43.508;4.980;2023-07-16T13:28:07;5.47;;;4.85;;
10383;SDS011;5238;43.508;4.980;2023-07-16T13:30:34;9.20;;;5.22;;
10383;SDS011;5238;43.508;4.980;2023-07-16T13:33:02;8.40;;;5.45;;
10383;SDS011;5238;43.508;4.980;2023-07-16T13:35:31;7.75;;;5.10;;
10383;SDS011;5238;43.508;4.980;2023-07-16T13:38:01;8.35;;;5.22;;
10383;SDS011;5238;43.508;4.980;2023-07-16T13:40:29;6.32;;;5.32;;
10383;SDS011;5238;43.508;4.980;2023-07-16T13:42:58;6.78;;;4.70;;
10383;SDS011;5238;43.508;4.980;2023-07-16T13:45:25;9.40;;;5.40;;
10383;SDS011;5238;43.508;4.980;2023-07-16T13:47:52;7.97;;;4.95;;
10383;SDS011;5238;43.508;4.980;2023-07-16T13:50:22;9.23;;;4.70;;
10383;SDS011;5238;43.508;4.980;2023-07-16T13:52:50;5.28;;;4.18;;
10383;SDS011;5238;43.508;4.980;2023-07-16T13:55:20;9.32;;;5.55;;
10383;SDS011;5238;43.508;4.980;2023-07-16T13:57:51;8.60;;;4.90;;
10383;SDS011;5238;43.508;4.980;2023-07-16T14:03:02;7.47;;;5.28;;
10383;SDS011;5238;43.508;4.980;2023-07-16T14:05:32;7.72;;;4.68;;
10383;SDS011;5238;43.508;4.980;2023-07-16T14:08:03;7.53;;;5.70;;
10383;SDS011;5238;43.508;4.980;2023-07-16T14:10:32;9.25;;;5.05;;
10383;SDS011;5238;43.508;4.980;2023-07-16T14:12:59;9.82;;;5.28;;
10383;SDS011;5238;43.508;4.980;2023-07-16T14:15:26;7.88;;;5.03;;
10383;SDS011;5238;43.508;4.980;2023-07-16T14:18:10;7.57;;;5.00;;
10383;SDS011;5238;43.508;4.980;2023-07-16T14:20:37;7.45;;;4.85;;
10383;SDS011;5238;43.508;4.980;2023-07-16T14:23:07;9.32;;;4.93;;
10383;SDS011;5238;43.508;4.980;2023-07-16T14:25:34;9.20;;;5.22;;
10383;SDS011;5238;43.508;4.980;2023-07-16T14:28:02;8.77;;;5.22;;
10383;SDS011;5238;43.508;4.980;2023-07-16T14:30:31;8.05;;;5.15;;
10383;SDS011;5238;43.508;4.980;2023-07-16T14:32:58;7.35;;;4.90;;
10383;SDS011;5238;43.508;4.980;2023-07-16T14:35:27;10.20;;;5.00;;
10383;SDS011;5238;43.508;4.980;2023-07-16T14:38:09;10.00;;;5.00;;
10383;SDS011;5238;43.508;4.980;2023-07-16T14:40:37;8.77;;;5.18;;
10383;SDS011;5238;43.508;4.980;2023-07-16T14:43:04;8.10;;;5.07;;
10383;SDS011;5238;43.508;4.980;2023-07-16T14:45:31;6.88;;;5.35;;
10383;SDS011;5238;43.508;4.980;2023-07-16T14:47:58;7.20;;;5.10;;
10383;SDS011;5238;43.508;4.980;2023-07-16T14:50:30;8.32;;;4.93;;
10383;SDS011;5238;43.508;4.980;2023-07-16T14:52:57;7.03;;;4.55;;
10383;SDS011;5238;43.508;4.980;2023-07-16T14:55:24;6.93;;;4.85;;
10383;SDS011;5238;43.508;4.980;2023-07-16T14:57:54;8.23;;;5.45;;
10383;SDS011;5238;43.508;4.980;2023-07-16T15:00:22;7.72;;;5.93;;
10383;SDS011;5238;43.508;4.980;2023-07-16T15:02:49;10.57;;;6.28;;
10383;SDS011;5238;43.508;4.980;2023-07-16T15:05:18;9.07;;;6.30;;
10383;SDS011;5238;43.508;4.980;2023-07-16T15:07:56;11.73;;;5.97;;